createdAt,value
2022-08-19T00:02:22.675Z,12.00
2022-08-19T00:04:53.669Z,11.33
2022-08-19T00:07:23.723Z,11.23
2022-08-19T00:09:51.867Z,11.43
2022-08-19T00:12:20.920Z,10.77
2022-08-19T00:14:49.095Z,10.27
2022-08-19T00:17:17.256Z,10.93
2022-08-19T00:19:45.384Z,10.73
2022-08-19T00:22:13.903Z,10.03
2022-08-19T00:24:50.857Z,9.57
2022-08-19T00:27:26.365Z,9.93
2022-08-19T00:29:55.353Z,13.50
2022-08-19T00:32:23.827Z,14.63
2022-08-19T00:34:54.538Z,15.73
2022-08-19T00:37:24.151Z,18.77
2022-08-19T00:39:53.802Z,19.43
2022-08-19T00:42:22.202Z,19.10
2022-08-19T00:44:51.425Z,20.57
2022-08-19T00:47:19.539Z,22.10
2022-08-19T00:49:51.714Z,24.07
2022-08-19T00:52:22.088Z,23.13
2022-08-19T00:54:52.638Z,23.30
2022-08-19T00:57:25.124Z,24.37
2022-08-19T01:00:01.879Z,24.80
2022-08-19T01:02:31.453Z,24.90
2022-08-19T01:04:59.914Z,24.40
2022-08-19T01:07:28.111Z,25.10
2022-08-19T01:10:03.992Z,25.40
2022-08-19T01:12:33.623Z,24.73
2022-08-19T01:15:01.853Z,25.07
2022-08-19T01:17:30.154Z,28.00
2022-08-19T01:19:58.954Z,24.40
2022-08-19T01:22:33.906Z,26.97
2022-08-19T01:25:02.450Z,26.00
2022-08-19T01:27:43.068Z,27.17
2022-08-19T01:30:14.298Z,27.57
2022-08-19T01:32:44.334Z,25.50
2022-08-19T01:35:13.025Z,25.20
2022-08-19T01:37:47.094Z,27.07
2022-08-19T01:40:15.361Z,27.10
2022-08-19T01:42:43.555Z,25.80
2022-08-19T01:45:12.193Z,27.50
2022-08-19T01:47:40.572Z,26.40
2022-08-19T01:50:09.778Z,27.50
2022-08-19T01:52:38.016Z,25.93
2022-08-19T01:55:09.223Z,28.67
2022-08-19T01:57:37.419Z,30.27
2022-08-19T02:00:06.850Z,27.77
2022-08-19T02:02:39.467Z,29.30
2022-08-19T02:05:11.310Z,28.60
2022-08-19T02:07:41.421Z,34.23
2022-08-19T02:10:13.815Z,30.37
2022-08-19T02:12:45.193Z,32.60
2022-08-19T02:15:13.437Z,32.63
2022-08-19T02:17:41.602Z,32.13
2022-08-19T02:20:10.927Z,31.83
2022-08-19T02:22:39.853Z,32.43
2022-08-19T02:25:08.415Z,35.57
2022-08-19T02:27:38.175Z,35.33
2022-08-19T02:30:14.151Z,36.03
2022-08-19T02:32:44.553Z,35.23
2022-08-19T02:35:13.583Z,38.60
2022-08-19T02:37:59.661Z,42.00
2022-08-19T02:40:28.207Z,38.63
2022-08-19T02:42:58.343Z,42.60
2022-08-19T02:45:26.463Z,38.27
2022-08-19T02:47:54.642Z,41.60
2022-08-19T02:50:22.755Z,38.77
2022-08-19T02:52:51.299Z,41.77
2022-08-19T02:55:19.837Z,49.73
2022-08-19T02:57:47.982Z,47.73
2022-08-19T03:00:17.971Z,43.20
2022-08-19T03:02:47.152Z,41.40
2022-08-19T03:05:15.394Z,48.93
2022-08-19T03:07:43.519Z,43.40
2022-08-19T03:10:11.609Z,45.83
2022-08-19T03:12:39.870Z,45.97
2022-08-19T03:15:08.554Z,49.00
2022-08-19T03:17:38.120Z,48.37
2022-08-19T03:20:07.246Z,68.70
2022-08-19T03:22:35.404Z,59.20
2022-08-19T03:25:03.507Z,47.27
2022-08-19T03:27:34.334Z,63.87
2022-08-19T03:30:03.587Z,46.47
2022-08-19T03:32:33.867Z,50.80
2022-08-19T03:35:04.957Z,80.83
2022-08-19T03:37:33.053Z,48.77
2022-08-19T03:40:01.210Z,49.57
2022-08-19T03:42:38.330Z,61.53
2022-08-19T03:45:17.758Z,49.80
2022-08-19T03:47:46.440Z,48.60
2022-08-19T03:50:16.049Z,46.83
2022-08-19T03:52:45.366Z,47.37
2022-08-19T03:55:15.327Z,84.80
2022-08-19T03:57:43.485Z,51.70
2022-08-19T04:00:14.138Z,59.00
2022-08-19T04:02:42.946Z,84.03
2022-08-19T04:05:28.559Z,64.00
2022-08-19T04:07:58.121Z,55.40
2022-08-19T04:10:26.320Z,50.27
2022-08-19T04:12:54.687Z,80.67
2022-08-19T04:15:23.226Z,50.30
2022-08-19T04:17:51.397Z,62.40
2022-08-19T04:20:19.597Z,57.13
2022-08-19T04:22:49.225Z,43.20
2022-08-19T04:25:17.583Z,35.70
2022-08-19T04:27:47.347Z,36.80
2022-08-19T04:30:16.149Z,36.77
2022-08-19T04:32:44.714Z,36.27
2022-08-19T04:35:17.516Z,54.03
2022-08-19T04:37:48.140Z,45.87
2022-08-19T04:40:34.235Z,53.20
2022-08-19T04:43:03.076Z,80.87
2022-08-19T04:45:36.257Z,71.17
2022-08-19T04:48:27.386Z,47.17
2022-08-19T04:50:58.520Z,46.83
2022-08-19T04:53:29.678Z,46.17
2022-08-19T04:56:08.005Z,52.50
2022-08-19T04:58:37.180Z,45.87
2022-08-19T05:01:05.409Z,43.07
2022-08-19T05:03:34.583Z,37.80
2022-08-19T05:06:08.416Z,35.90
2022-08-19T05:08:38.282Z,33.53
2022-08-19T05:11:10.788Z,35.77
2022-08-19T05:13:43.365Z,29.23
2022-08-19T05:16:11.629Z,34.30
2022-08-19T05:18:57.555Z,27.17
2022-08-19T05:21:42.838Z,28.40
2022-08-19T05:24:12.362Z,26.50
2022-08-19T05:26:40.852Z,23.17
2022-08-19T05:29:09.571Z,24.23
2022-08-19T05:31:39.425Z,20.57
2022-08-19T05:34:18.279Z,19.53
2022-08-19T05:36:48.692Z,18.90
2022-08-19T05:39:21.374Z,18.80
2022-08-19T05:41:50.918Z,18.00
2022-08-19T05:44:19.197Z,18.00
2022-08-19T05:46:48.264Z,16.07
2022-08-19T05:49:16.735Z,17.47
2022-08-19T05:51:45.527Z,16.70
2022-08-19T05:54:14.464Z,16.90
2022-08-19T05:56:44.000Z,19.27
2022-08-19T05:59:12.393Z,19.03
2022-08-19T06:01:41.294Z,21.37
2022-08-19T06:04:09.460Z,20.30
2022-08-19T06:06:37.767Z,20.60
2022-08-19T06:09:06.482Z,22.17
2022-08-19T06:11:35.894Z,22.17
2022-08-19T06:14:09.578Z,23.87
2022-08-19T06:16:44.773Z,22.70
2022-08-19T06:19:14.277Z,24.03
2022-08-19T06:21:44.424Z,26.60
2022-08-19T06:24:13.843Z,26.00
2022-08-19T06:26:43.328Z,25.00
2022-08-19T06:29:23.709Z,26.60
2022-08-19T06:31:53.602Z,25.97
2022-08-19T06:34:22.037Z,31.40
2022-08-19T06:36:52.193Z,28.50
2022-08-19T06:39:21.951Z,27.67
2022-08-19T06:41:58.167Z,28.53
2022-08-19T06:44:39.100Z,27.27
2022-08-19T06:47:14.769Z,27.50
2022-08-19T06:49:43.326Z,28.63
2022-08-19T06:52:14.202Z,29.50
2022-08-19T06:54:56.044Z,30.70
2022-08-19T06:57:25.004Z,30.60
2022-08-19T06:59:56.391Z,32.60
2022-08-19T07:02:27.319Z,31.83
2022-08-19T07:04:56.843Z,36.40
2022-08-19T07:07:25.804Z,37.07
2022-08-19T07:09:59.885Z,38.70
2022-08-19T07:12:30.360Z,36.63
2022-08-19T07:15:00.873Z,35.43
2022-08-19T07:17:29.557Z,41.20
2022-08-19T07:20:04.990Z,39.03
2022-08-19T07:22:35.099Z,37.33
2022-08-19T07:25:04.772Z,32.20
2022-08-19T07:27:33.788Z,33.20
2022-08-19T07:30:03.512Z,29.57
2022-08-19T07:32:32.608Z,30.70
2022-08-19T07:35:01.650Z,28.17
2022-08-19T07:37:33.145Z,27.80
2022-08-19T07:40:01.948Z,25.50
2022-08-19T07:42:31.112Z,25.80
2022-08-19T07:44:59.586Z,26.93
2022-08-19T07:47:47.732Z,24.27
2022-08-19T07:50:16.916Z,27.27
2022-08-19T07:52:48.749Z,25.17
2022-08-19T07:55:41.182Z,27.77
2022-08-19T07:58:08.284Z,27.97
2022-08-19T08:00:36.978Z,29.37
2022-08-19T08:03:06.584Z,33.57
2022-08-19T08:05:52.563Z,34.10
2022-08-19T08:08:37.343Z,29.57
2022-08-19T08:11:12.826Z,30.80
2022-08-19T08:13:44.282Z,27.57
2022-08-19T08:16:14.130Z,28.73
2022-08-19T08:18:50.646Z,26.67
2022-08-19T08:21:21.452Z,25.90
2022-08-19T08:23:51.072Z,28.97
2022-08-19T08:26:20.315Z,27.03
2022-08-19T08:28:49.473Z,26.17
2022-08-19T08:31:19.603Z,25.67
2022-08-19T08:33:49.740Z,29.07
2022-08-19T08:36:18.318Z,26.63
2022-08-19T08:38:47.459Z,27.03
2022-08-19T08:41:21.451Z,24.90
2022-08-19T08:43:52.118Z,25.40
2022-08-19T08:46:30.850Z,24.00
2022-08-19T08:49:04.786Z,23.63
2022-08-19T08:51:36.034Z,22.67
2022-08-19T08:54:04.907Z,19.60
2022-08-19T08:56:33.505Z,19.33
2022-08-19T08:59:04.908Z,19.13
2022-08-19T09:01:33.194Z,25.13
2022-08-19T09:04:04.761Z,18.03
2022-08-19T09:06:37.951Z,15.27
2022-08-19T09:09:16.201Z,14.60
2022-08-19T09:11:52.991Z,15.03
2022-08-19T09:14:51.216Z,15.17
2022-08-19T09:17:21.994Z,15.90
2022-08-19T09:19:56.315Z,15.60
2022-08-19T09:22:25.796Z,17.27
2022-08-19T09:24:55.505Z,18.10
2022-08-19T09:27:41.929Z,20.73
2022-08-19T09:30:14.588Z,20.37
2022-08-19T09:32:44.468Z,22.30
2022-08-19T09:35:14.997Z,24.97
2022-08-19T09:37:43.731Z,21.70
2022-08-19T09:40:13.457Z,23.47
2022-08-19T09:42:49.950Z,22.20
2022-08-19T09:45:22.971Z,22.70
2022-08-19T09:47:54.367Z,23.47
2022-08-19T09:50:24.298Z,26.03
2022-08-19T09:52:55.227Z,26.67
2022-08-19T09:55:31.827Z,28.40
2022-08-19T09:58:02.742Z,29.53
2022-08-19T10:00:31.756Z,28.53
2022-08-19T10:02:59.867Z,29.83
2022-08-19T10:05:48.733Z,30.80
2022-08-19T10:08:17.796Z,33.83
2022-08-19T10:10:47.062Z,32.67
2022-08-19T10:13:15.728Z,39.37
2022-08-19T10:15:47.701Z,42.57
2022-08-19T10:18:16.704Z,38.07
2022-08-19T10:20:51.327Z,37.40
2022-08-19T10:23:19.759Z,40.00
2022-08-19T10:25:48.253Z,40.10
2022-08-19T10:28:16.462Z,41.23
2022-08-19T10:30:47.852Z,43.33
2022-08-19T10:33:27.061Z,42.87
2022-08-19T10:36:06.974Z,42.50
2022-08-19T10:38:36.472Z,41.73
2022-08-19T10:41:12.079Z,44.60
2022-08-19T10:43:40.931Z,46.23
2022-08-19T10:46:14.238Z,46.57
2022-08-19T10:48:45.050Z,48.50
2022-08-19T10:51:44.600Z,47.87
2022-08-19T10:54:16.141Z,48.57
2022-08-19T10:56:56.162Z,50.40
2022-08-19T10:59:31.428Z,47.17
2022-08-19T11:02:02.766Z,40.90
2022-08-19T11:04:31.304Z,34.07
2022-08-19T11:07:04.643Z,34.33
2022-08-19T11:09:34.356Z,31.07
2022-08-19T11:12:04.868Z,33.10
2022-08-19T11:14:34.866Z,31.87
2022-08-19T11:17:03.576Z,30.90
2022-08-19T11:19:31.970Z,26.80
2022-08-19T11:22:03.792Z,27.23
2022-08-19T11:24:34.175Z,25.53
2022-08-19T11:27:08.354Z,33.13
2022-08-19T11:29:37.364Z,31.77
2022-08-19T11:32:09.953Z,29.10
2022-08-19T11:34:38.390Z,24.03
2022-08-19T11:37:09.693Z,21.57
2022-08-19T11:39:38.258Z,18.63
2022-08-19T11:42:27.536Z,14.80
2022-08-19T11:44:55.976Z,14.10
2022-08-19T11:47:24.461Z,13.67
2022-08-19T11:49:52.794Z,14.77
2022-08-19T11:52:22.686Z,14.63
2022-08-19T11:54:50.949Z,14.73
2022-08-19T11:57:20.840Z,14.93
2022-08-19T11:59:52.590Z,16.20
2022-08-19T12:02:20.999Z,17.13
2022-08-19T12:04:49.302Z,19.07
2022-08-19T12:07:17.624Z,19.20
2022-08-19T12:09:48.742Z,24.97
2022-08-19T12:12:22.836Z,20.63
2022-08-19T12:14:57.546Z,20.60
2022-08-19T12:17:26.193Z,21.50
2022-08-19T12:19:54.616Z,22.63
2022-08-19T12:22:23.001Z,22.67
2022-08-19T12:24:54.310Z,21.97
2022-08-19T12:27:31.881Z,21.03
2022-08-19T12:30:04.330Z,21.13
2022-08-19T12:32:32.614Z,21.37
2022-08-19T12:35:00.926Z,23.10
2022-08-19T12:37:32.670Z,24.20
2022-08-19T12:40:03.201Z,27.53
2022-08-19T12:42:31.789Z,31.27
2022-08-19T12:45:00.045Z,27.47
2022-08-19T12:47:28.635Z,30.83
2022-08-19T12:49:57.634Z,33.60
2022-08-19T12:52:26.367Z,32.13
2022-08-19T12:54:55.551Z,29.37
2022-08-19T12:57:31.906Z,32.20
2022-08-19T13:00:05.309Z,28.70
2022-08-19T13:02:38.528Z,29.97
2022-08-19T13:05:12.326Z,28.37
2022-08-19T13:07:41.061Z,28.93
2022-08-19T13:10:10.586Z,23.87
2022-08-19T13:12:40.321Z,27.67
2022-08-19T13:15:10.911Z,28.20
2022-08-19T13:17:40.000Z,26.47
2022-08-19T13:20:09.817Z,29.63
2022-08-19T13:22:38.102Z,27.80
2022-08-19T13:25:07.556Z,31.60
2022-08-19T13:27:35.808Z,29.97
2022-08-19T13:30:24.092Z,32.37
2022-08-19T13:33:09.486Z,39.83
2022-08-19T13:35:37.789Z,34.83
2022-08-19T13:38:11.740Z,40.00
2022-08-19T13:40:41.317Z,36.17
2022-08-19T13:43:17.810Z,46.23
2022-08-19T13:45:57.739Z,42.47
2022-08-19T13:48:27.494Z,40.07
2022-08-19T13:50:56.052Z,39.53
2022-08-19T13:53:24.687Z,39.30
2022-08-19T13:55:54.701Z,42.20
2022-08-19T13:58:23.346Z,43.40
2022-08-19T14:00:53.613Z,44.80
2022-08-19T14:03:22.003Z,42.40
2022-08-19T14:05:50.242Z,42.53
2022-08-19T14:08:18.571Z,44.87
2022-08-19T14:10:46.953Z,44.90
2022-08-19T14:13:16.085Z,44.57
2022-08-19T14:15:44.601Z,44.83
2022-08-19T14:18:14.311Z,47.53
2022-08-19T14:20:42.673Z,45.17
2022-08-19T14:23:11.047Z,40.07
2022-08-19T14:25:39.315Z,43.20
2022-08-19T14:28:09.087Z,42.23
2022-08-19T14:30:38.740Z,47.63
2022-08-19T14:33:08.124Z,41.67
2022-08-19T14:35:37.793Z,41.53
2022-08-19T14:38:06.212Z,40.83
2022-08-19T14:40:34.624Z,41.73
2022-08-19T14:43:05.251Z,43.37
2022-08-19T14:45:34.198Z,38.60
2022-08-19T14:48:02.703Z,40.03
2022-08-19T14:50:31.254Z,38.77
2022-08-19T14:53:08.186Z,38.27
2022-08-19T14:55:43.791Z,37.27
2022-08-19T14:58:28.833Z,38.93
2022-08-19T15:00:58.811Z,38.80
2022-08-19T15:03:27.352Z,40.13
2022-08-19T15:05:56.613Z,38.97
2022-08-19T15:08:27.093Z,39.33
2022-08-19T15:10:55.720Z,38.60
2022-08-19T15:13:24.955Z,38.07
2022-08-19T15:15:55.269Z,38.70
2022-08-19T15:18:23.597Z,39.40
2022-08-19T15:20:52.854Z,39.33
2022-08-19T15:23:22.843Z,38.70
2022-08-19T15:25:59.079Z,39.30
2022-08-19T15:28:29.963Z,40.00
2022-08-19T15:31:02.183Z,40.67
2022-08-19T15:33:33.389Z,38.23
2022-08-19T15:36:01.731Z,40.80
2022-08-19T15:38:34.441Z,36.67
2022-08-19T15:41:20.192Z,38.10
2022-08-19T15:43:53.533Z,42.37
2022-08-19T15:46:41.430Z,39.67
2022-08-19T15:49:09.843Z,41.63
2022-08-19T15:51:39.316Z,46.50
2022-08-19T15:54:09.742Z,48.83
2022-08-19T15:56:58.472Z,43.97
2022-08-19T15:59:47.524Z,46.20
2022-08-19T16:02:34.177Z,47.37
2022-08-19T16:05:24.662Z,52.13
2022-08-19T16:07:52.880Z,48.00
2022-08-19T16:10:27.120Z,44.20
2022-08-19T16:16:47.823Z,34.10
2022-08-19T16:19:17.278Z,32.17
2022-08-19T16:21:46.123Z,31.83
2022-08-19T16:24:16.257Z,28.00
2022-08-19T16:26:44.955Z,30.57
2022-08-19T16:29:22.150Z,32.00
2022-08-19T16:32:04.148Z,29.57
2022-08-19T16:34:34.881Z,29.67
2022-08-19T16:37:03.211Z,29.20
2022-08-19T16:39:33.809Z,24.00
2022-08-19T16:42:02.410Z,26.13
2022-08-19T16:44:30.765Z,24.50
2022-08-19T16:46:59.735Z,23.57
2022-08-19T16:49:52.189Z,24.40
2022-08-19T16:52:20.225Z,23.97
2022-08-19T16:54:48.689Z,25.63
2022-08-19T16:57:17.293Z,24.77
2022-08-19T16:59:49.204Z,22.30
2022-08-19T17:02:18.338Z,21.97
2022-08-19T17:04:58.318Z,23.80
2022-08-19T17:07:27.993Z,25.13
2022-08-19T17:09:56.741Z,23.67
2022-08-19T17:12:30.260Z,25.00
2022-08-19T17:15:00.842Z,21.37
2022-08-19T17:17:29.797Z,25.27
2022-08-19T17:20:00.522Z,23.20
2022-08-19T17:22:28.936Z,23.33
2022-08-19T17:24:58.212Z,22.63
2022-08-19T17:27:32.058Z,23.10
2022-08-19T17:30:02.647Z,21.90
2022-08-19T17:32:32.586Z,23.90
2022-08-19T17:35:02.428Z,20.17
2022-08-19T17:37:31.058Z,21.70
2022-08-19T17:39:59.336Z,21.63
2022-08-19T17:42:28.058Z,22.97
2022-08-19T17:44:59.542Z,20.10
2022-08-19T17:47:28.495Z,22.73
2022-08-19T17:49:56.858Z,21.67
2022-08-19T17:52:26.853Z,21.60
2022-08-19T17:54:55.162Z,22.27
2022-08-19T17:57:23.493Z,20.10
2022-08-19T17:59:51.973Z,19.93
2022-08-19T18:02:21.904Z,18.73
2022-08-19T18:04:52.808Z,19.50
2022-08-19T18:07:22.125Z,19.63
2022-08-19T18:09:52.919Z,20.63
2022-08-19T18:12:27.362Z,20.37
2022-08-19T18:14:56.112Z,17.93
2022-08-19T18:17:26.092Z,20.33
2022-08-19T18:19:54.960Z,20.93
2022-08-19T18:22:26.331Z,19.03
2022-08-19T18:24:57.201Z,19.50
2022-08-19T18:27:25.747Z,18.23
2022-08-19T18:29:56.770Z,18.13
2022-08-19T18:32:26.440Z,19.37
2022-08-19T18:34:54.946Z,19.77
2022-08-19T18:37:23.326Z,18.13
2022-08-19T18:40:09.037Z,19.43
2022-08-19T18:43:00.092Z,18.23
2022-08-19T18:45:45.731Z,19.73
2022-08-19T18:48:32.064Z,17.70
2022-08-19T18:51:01.074Z,17.47
2022-08-19T18:53:30.436Z,19.47
2022-08-19T18:55:58.653Z,17.87
2022-08-19T18:58:34.041Z,18.43
2022-08-19T19:01:04.400Z,19.37
2022-08-19T19:03:32.799Z,18.23
2022-08-19T19:06:01.543Z,18.27
2022-08-19T19:08:29.827Z,17.63
2022-08-19T19:10:59.055Z,17.63
2022-08-19T19:13:30.105Z,17.17
2022-08-19T19:15:59.990Z,17.20
2022-08-19T19:18:28.514Z,19.63
2022-08-19T19:20:57.013Z,18.47
2022-08-19T19:23:27.349Z,15.70
2022-08-19T19:25:56.360Z,18.77
2022-08-19T19:28:25.789Z,16.13
2022-08-19T19:30:57.693Z,17.73
2022-08-19T19:33:26.250Z,19.13
2022-08-19T19:35:54.709Z,19.77
2022-08-19T19:38:23.007Z,17.73
2022-08-19T19:40:51.607Z,19.63
2022-08-19T19:43:19.879Z,18.13
2022-08-19T19:45:49.244Z,16.20
2022-08-19T19:48:19.264Z,15.97
2022-08-19T19:50:53.893Z,18.30
2022-08-19T19:53:24.891Z,17.23
2022-08-19T19:55:55.302Z,16.33
2022-08-19T19:58:28.829Z,16.77
2022-08-19T20:00:59.164Z,16.40
2022-08-19T20:03:30.128Z,16.60
2022-08-19T20:05:59.544Z,15.67
2022-08-19T20:08:45.975Z,15.93
2022-08-19T20:11:17.934Z,17.10
2022-08-19T20:13:46.247Z,15.57
2022-08-19T20:16:14.669Z,17.63
2022-08-19T20:18:44.560Z,17.07
2022-08-19T20:21:13.766Z,16.70
2022-08-19T20:23:42.043Z,15.53
2022-08-19T20:26:10.348Z,15.80
2022-08-19T20:28:58.388Z,18.17
2022-08-19T20:31:37.295Z,16.90
2022-08-19T20:34:24.819Z,15.50
2022-08-19T20:36:53.474Z,16.07
2022-08-19T20:39:21.755Z,15.83
2022-08-19T20:41:50.154Z,17.10
2022-08-19T20:44:18.904Z,15.13
2022-08-19T20:46:55.622Z,17.40
2022-08-19T20:49:27.719Z,17.17
2022-08-19T20:51:56.814Z,16.30
2022-08-19T20:54:25.314Z,16.13
2022-08-19T20:56:53.584Z,14.80
2022-08-19T20:59:21.897Z,15.00
2022-08-19T21:01:51.806Z,15.13
2022-08-19T21:04:21.513Z,13.70
2022-08-19T21:06:51.286Z,13.30
2022-08-19T21:09:19.575Z,12.40
2022-08-19T21:11:47.781Z,11.03
2022-08-19T21:14:16.049Z,11.27
2022-08-19T21:16:44.756Z,11.53
2022-08-19T21:19:13.103Z,11.57
2022-08-19T21:21:41.371Z,13.73
2022-08-19T21:24:11.022Z,10.47
2022-08-19T21:26:39.339Z,11.33
2022-08-19T21:29:07.711Z,13.20
2022-08-19T21:31:36.319Z,10.70
2022-08-19T21:34:05.411Z,10.63
2022-08-19T21:36:33.661Z,12.00
2022-08-19T21:39:01.888Z,12.07
2022-08-19T21:41:31.670Z,11.10
2022-08-19T21:43:59.949Z,10.83
2022-08-19T21:46:28.516Z,12.20
2022-08-19T21:48:56.864Z,11.90
2022-08-19T21:51:25.110Z,11.23
2022-08-19T21:53:53.781Z,13.07
2022-08-19T21:56:22.453Z,12.27
2022-08-19T21:58:55.597Z,12.07
2022-08-19T22:01:23.958Z,12.50
2022-08-19T22:03:52.213Z,12.33
2022-08-19T22:06:23.203Z,12.20
2022-08-19T22:08:51.418Z,12.63
2022-08-19T22:11:19.885Z,12.40
2022-08-19T22:13:48.180Z,12.63
2022-08-19T22:16:18.280Z,12.33
2022-08-19T22:18:46.448Z,12.60
2022-08-19T22:21:14.767Z,14.53
2022-08-19T22:23:48.467Z,14.13
2022-08-19T22:26:17.419Z,15.10
2022-08-19T22:28:45.709Z,15.43
2022-08-19T22:31:15.727Z,16.73
2022-08-19T22:33:45.784Z,15.63
2022-08-19T22:36:14.285Z,17.50
2022-08-19T22:38:42.844Z,16.93
2022-08-19T22:41:11.719Z,15.37
2022-08-19T22:43:40.182Z,15.90
2022-08-19T22:46:17.155Z,16.20
2022-08-19T22:48:47.668Z,14.93
2022-08-19T22:51:33.414Z,16.07
2022-08-19T22:54:01.823Z,17.30
2022-08-19T22:56:31.007Z,15.90
2022-08-19T22:58:59.874Z,14.87
2022-08-19T23:01:30.652Z,16.50
2022-08-19T23:04:03.693Z,14.00
2022-08-19T23:06:33.856Z,14.20
2022-08-19T23:09:04.554Z,16.30
2022-08-19T23:11:38.110Z,13.97
2022-08-19T23:14:11.320Z,13.97
2022-08-19T23:16:39.545Z,14.37
2022-08-19T23:19:11.760Z,14.23
2022-08-19T23:21:40.034Z,14.07
2022-08-19T23:24:08.639Z,13.53
2022-08-19T23:26:36.990Z,14.10
2022-08-19T23:29:23.784Z,13.57
2022-08-19T23:31:52.046Z,13.77
2022-08-19T23:34:21.963Z,13.80
2022-08-19T23:36:50.557Z,12.80
2022-08-19T23:39:19.422Z,12.90
2022-08-19T23:41:47.748Z,13.07
2022-08-19T23:44:16.119Z,13.93
2022-08-19T23:46:55.073Z,13.23
2022-08-19T23:49:26.259Z,14.30
2022-08-19T23:51:55.715Z,17.13
2022-08-19T23:54:29.736Z,14.83
2022-08-19T23:57:13.444Z,12.97
2022-08-19T23:59:45.323Z,15.50
